sensor_id;sensor_type;location;lat;lon;timestamp;P1;durP1;ratioP1;P2;durP2;ratioP2
10511;SDS011;5304;48.604;2.096;2023-06-10T00:01:53;9.20;;;5.90;;
10511;SDS011;5304;48.604;2.096;2023-06-10T00:04:42;6.15;;;5.57;;
10511;SDS011;5304;48.604;2.096;2023-06-10T00:07:26;7.20;;;5.03;;
10511;SDS011;5304;48.604;2.096;2023-06-10T00:10:11;7.72;;;5.20;;
10511;SDS011;5304;48.604;2.096;2023-06-10T00:12:55;6.15;;;5.55;;
10511;SDS011;5304;48.604;2.096;2023-06-10T00:15:40;8.73;;;5.63;;
10511;SDS011;5304;48.604;2.096;2023-06-10T00:18:24;5.97;;;5.47;;
10511;SDS011;5304;48.604;2.096;2023-06-10T00:21:10;6.88;;;6.13;;
10511;SDS011;5304;48.604;2.096;2023-06-10T00:23:57;6.97;;;5.80;;
10511;SDS011;5304;48.604;2.096;2023-06-10T00:26:46;6.18;;;5.57;;
10511;SDS011;5304;48.604;2.096;2023-06-10T00:29:30;6.50;;;5.78;;
10511;SDS011;5304;48.604;2.096;2023-06-10T00:32:15;5.80;;;5.15;;
10511;SDS011;5304;48.604;2.096;2023-06-10T00:34:59;5.95;;;5.43;;
10511;SDS011;5304;48.604;2.096;2023-06-10T00:37:44;7.43;;;5.72;;
10511;SDS011;5304;48.604;2.096;2023-06-10T00:40:29;6.60;;;6.00;;
10511;SDS011;5304;48.604;2.096;2023-06-10T00:43:13;7.72;;;6.90;;
10511;SDS011;5304;48.604;2.096;2023-06-10T00:45:57;6.43;;;5.78;;
10511;SDS011;5304;48.604;2.096;2023-06-10T00:48:43;6.90;;;6.00;;
10511;SDS011;5304;48.604;2.096;2023-06-10T00:51:28;6.38;;;5.63;;
10511;SDS011;5304;48.604;2.096;2023-06-10T00:54:13;5.93;;;5.30;;
10511;SDS011;5304;48.604;2.096;2023-06-10T00:57:00;6.22;;;5.63;;
10511;SDS011;5304;48.604;2.096;2023-06-10T00:59:47;5.90;;;5.40;;
10511;SDS011;5304;48.604;2.096;2023-06-10T01:02:33;6.13;;;5.53;;
10511;SDS011;5304;48.604;2.096;2023-06-10T01:05:19;6.38;;;5.25;;
10511;SDS011;5304;48.604;2.096;2023-06-10T01:08:28;6.18;;;5.22;;
10511;SDS011;5304;48.604;2.096;2023-06-10T01:11:23;6.50;;;5.10;;
10511;SDS011;5304;48.604;2.096;2023-06-10T01:14:12;7.30;;;5.43;;
10511;SDS011;5304;48.604;2.096;2023-06-10T01:16:58;7.38;;;5.43;;
10511;SDS011;5304;48.604;2.096;2023-06-10T01:19:44;6.18;;;5.47;;
10511;SDS011;5304;48.604;2.096;2023-06-10T01:22:36;5.97;;;5.32;;
10511;SDS011;5304;48.604;2.096;2023-06-10T01:25:21;6.25;;;5.65;;
10511;SDS011;5304;48.604;2.096;2023-06-10T01:28:26;6.97;;;5.97;;
10511;SDS011;5304;48.604;2.096;2023-06-10T01:34:17;6.18;;;5.35;;
10511;SDS011;5304;48.604;2.096;2023-06-10T01:37:02;6.13;;;5.10;;
10511;SDS011;5304;48.604;2.096;2023-06-10T01:39:48;5.70;;;5.05;;
10511;SDS011;5304;48.604;2.096;2023-06-10T01:42:33;6.18;;;5.57;;
10511;SDS011;5304;48.604;2.096;2023-06-10T01:45:19;6.20;;;5.60;;
10511;SDS011;5304;48.604;2.096;2023-06-10T01:48:04;6.55;;;5.85;;
10511;SDS011;5304;48.604;2.096;2023-06-10T01:50:48;8.48;;;5.50;;
10511;SDS011;5304;48.604;2.096;2023-06-10T01:53:33;6.53;;;5.82;;
10511;SDS011;5304;48.604;2.096;2023-06-10T01:56:17;6.28;;;5.68;;
10511;SDS011;5304;48.604;2.096;2023-06-10T01:59:03;6.45;;;5.85;;
10511;SDS011;5304;48.604;2.096;2023-06-10T02:01:48;5.45;;;4.90;;
10511;SDS011;5304;48.604;2.096;2023-06-10T02:04:32;6.10;;;5.47;;
10511;SDS011;5304;48.604;2.096;2023-06-10T02:07:17;6.13;;;5.53;;
10511;SDS011;5304;48.604;2.096;2023-06-10T02:10:02;6.82;;;5.65;;
10511;SDS011;5304;48.604;2.096;2023-06-10T02:12:46;6.97;;;5.60;;
10511;SDS011;5304;48.604;2.096;2023-06-10T02:15:31;7.72;;;6.28;;
10511;SDS011;5304;48.604;2.096;2023-06-10T02:18:15;6.13;;;5.53;;
10511;SDS011;5304;48.604;2.096;2023-06-10T02:21:00;7.22;;;6.53;;
10511;SDS011;5304;48.604;2.096;2023-06-10T02:23:44;7.05;;;6.35;;
10511;SDS011;5304;48.604;2.096;2023-06-10T02:26:28;7.75;;;5.90;;
10511;SDS011;5304;48.604;2.096;2023-06-10T02:29:13;7.07;;;5.93;;
10511;SDS011;5304;48.604;2.096;2023-06-10T02:31:58;6.78;;;6.10;;
10511;SDS011;5304;48.604;2.096;2023-06-10T02:34:42;6.47;;;5.88;;
10511;SDS011;5304;48.604;2.096;2023-06-10T02:37:26;9.05;;;6.78;;
10511;SDS011;5304;48.604;2.096;2023-06-10T02:40:11;6.78;;;6.00;;
10511;SDS011;5304;48.604;2.096;2023-06-10T02:42:56;7.20;;;6.32;;
10511;SDS011;5304;48.604;2.096;2023-06-10T02:45:41;6.95;;;6.28;;
10511;SDS011;5304;48.604;2.096;2023-06-10T02:48:25;8.20;;;6.50;;
10511;SDS011;5304;48.604;2.096;2023-06-10T02:51:12;7.28;;;6.25;;
10511;SDS011;5304;48.604;2.096;2023-06-10T02:53:56;8.02;;;6.22;;
10511;SDS011;5304;48.604;2.096;2023-06-10T02:56:41;8.77;;;6.35;;
10511;SDS011;5304;48.604;2.096;2023-06-10T02:59:25;8.07;;;6.13;;
10511;SDS011;5304;48.604;2.096;2023-06-10T03:02:10;8.57;;;6.72;;
10511;SDS011;5304;48.604;2.096;2023-06-10T03:04:55;7.95;;;6.28;;
10511;SDS011;5304;48.604;2.096;2023-06-10T03:07:39;7.15;;;6.03;;
10511;SDS011;5304;48.604;2.096;2023-06-10T03:10:24;8.50;;;6.90;;
10511;SDS011;5304;48.604;2.096;2023-06-10T03:13:09;7.78;;;6.85;;
10511;SDS011;5304;48.604;2.096;2023-06-10T03:15:54;7.50;;;6.43;;
10511;SDS011;5304;48.604;2.096;2023-06-10T03:18:38;6.97;;;6.15;;
10511;SDS011;5304;48.604;2.096;2023-06-10T03:21:23;6.70;;;6.00;;
10511;SDS011;5304;48.604;2.096;2023-06-10T03:24:08;7.63;;;6.10;;
10511;SDS011;5304;48.604;2.096;2023-06-10T03:26:54;7.97;;;6.28;;
10511;SDS011;5304;48.604;2.096;2023-06-10T03:29:39;6.57;;;5.93;;
10511;SDS011;5304;48.604;2.096;2023-06-10T03:32:24;7.63;;;6.73;;
10511;SDS011;5304;48.604;2.096;2023-06-10T03:35:08;6.03;;;5.53;;
10511;SDS011;5304;48.604;2.096;2023-06-10T03:37:53;8.03;;;6.40;;
10511;SDS011;5304;48.604;2.096;2023-06-10T03:40:37;6.75;;;6.10;;
10511;SDS011;5304;48.604;2.096;2023-06-10T03:43:22;8.40;;;6.60;;
10511;SDS011;5304;48.604;2.096;2023-06-10T03:46:07;7.25;;;6.55;;
10511;SDS011;5304;48.604;2.096;2023-06-10T03:48:51;8.17;;;7.00;;
10511;SDS011;5304;48.604;2.096;2023-06-10T03:51:36;8.18;;;7.20;;
10511;SDS011;5304;48.604;2.096;2023-06-10T03:54:20;8.03;;;6.90;;
10511;SDS011;5304;48.604;2.096;2023-06-10T03:57:05;8.30;;;6.83;;
10511;SDS011;5304;48.604;2.096;2023-06-10T03:59:49;7.00;;;6.30;;
10511;SDS011;5304;48.604;2.096;2023-06-10T04:02:34;8.07;;;6.40;;
10511;SDS011;5304;48.604;2.096;2023-06-10T04:05:21;9.87;;;6.87;;
10511;SDS011;5304;48.604;2.096;2023-06-10T04:08:06;10.57;;;6.30;;
10511;SDS011;5304;48.604;2.096;2023-06-10T04:10:51;7.90;;;6.17;;
10511;SDS011;5304;48.604;2.096;2023-06-10T04:13:35;8.53;;;6.10;;
10511;SDS011;5304;48.604;2.096;2023-06-10T04:16:20;7.10;;;6.40;;
10511;SDS011;5304;48.604;2.096;2023-06-10T04:19:05;7.43;;;6.70;;
10511;SDS011;5304;48.604;2.096;2023-06-10T04:21:49;8.07;;;6.43;;
10511;SDS011;5304;48.604;2.096;2023-06-10T04:24:33;8.67;;;7.00;;
10511;SDS011;5304;48.604;2.096;2023-06-10T04:27:19;7.77;;;6.87;;
10511;SDS011;5304;48.604;2.096;2023-06-10T04:30:04;9.40;;;7.20;;
10511;SDS011;5304;48.604;2.096;2023-06-10T04:32:49;11.17;;;7.53;;
10511;SDS011;5304;48.604;2.096;2023-06-10T04:35:33;10.00;;;7.23;;
10511;SDS011;5304;48.604;2.096;2023-06-10T04:38:17;7.80;;;7.00;;
10511;SDS011;5304;48.604;2.096;2023-06-10T04:41:01;7.47;;;6.77;;
10511;SDS011;5304;48.604;2.096;2023-06-10T04:43:46;8.70;;;7.33;;
10511;SDS011;5304;48.604;2.096;2023-06-10T04:46:30;10.03;;;7.57;;
10511;SDS011;5304;48.604;2.096;2023-06-10T04:49:15;9.23;;;7.47;;
10511;SDS011;5304;48.604;2.096;2023-06-10T04:52:00;9.23;;;7.80;;
10511;SDS011;5304;48.604;2.096;2023-06-10T04:54:44;8.07;;;7.28;;
10511;SDS011;5304;48.604;2.096;2023-06-10T04:57:29;7.63;;;6.83;;
10511;SDS011;5304;48.604;2.096;2023-06-10T05:00:13;7.57;;;6.88;;
10511;SDS011;5304;48.604;2.096;2023-06-10T05:02:58;9.10;;;7.33;;
10511;SDS011;5304;48.604;2.096;2023-06-10T05:05:43;8.87;;;7.70;;
10511;SDS011;5304;48.604;2.096;2023-06-10T05:08:27;7.83;;;7.03;;
10511;SDS011;5304;48.604;2.096;2023-06-10T05:11:12;8.87;;;7.20;;
10511;SDS011;5304;48.604;2.096;2023-06-10T05:13:56;10.43;;;7.37;;
10511;SDS011;5304;48.604;2.096;2023-06-10T05:16:41;9.87;;;7.40;;
10511;SDS011;5304;48.604;2.096;2023-06-10T05:19:27;9.88;;;7.38;;
10511;SDS011;5304;48.604;2.096;2023-06-10T05:22:13;9.37;;;7.57;;
10511;SDS011;5304;48.604;2.096;2023-06-10T05:25:00;10.03;;;7.67;;
10511;SDS011;5304;48.604;2.096;2023-06-10T05:27:44;9.55;;;7.53;;
10511;SDS011;5304;48.604;2.096;2023-06-10T05:30:29;10.33;;;7.33;;
10511;SDS011;5304;48.604;2.096;2023-06-10T05:33:14;8.32;;;7.38;;
10511;SDS011;5304;48.604;2.096;2023-06-10T05:35:58;9.13;;;7.07;;
10511;SDS011;5304;48.604;2.096;2023-06-10T05:38:42;10.07;;;7.07;;
10511;SDS011;5304;48.604;2.096;2023-06-10T05:41:26;7.95;;;7.10;;
10511;SDS011;5304;48.604;2.096;2023-06-10T05:44:10;11.27;;;7.10;;
10511;SDS011;5304;48.604;2.096;2023-06-10T05:46:55;8.52;;;6.63;;
10511;SDS011;5304;48.604;2.096;2023-06-10T05:49:39;6.88;;;6.07;;
10511;SDS011;5304;48.604;2.096;2023-06-10T05:52:24;10.57;;;6.88;;
10511;SDS011;5304;48.604;2.096;2023-06-10T05:55:08;8.40;;;6.43;;
10511;SDS011;5304;48.604;2.096;2023-06-10T05:58:00;9.52;;;6.40;;
10511;SDS011;5304;48.604;2.096;2023-06-10T06:00:44;7.38;;;6.43;;
10511;SDS011;5304;48.604;2.096;2023-06-10T06:03:29;9.07;;;6.20;;
10511;SDS011;5304;48.604;2.096;2023-06-10T06:06:13;7.70;;;6.43;;
10511;SDS011;5304;48.604;2.096;2023-06-10T06:08:58;7.50;;;6.78;;
10511;SDS011;5304;48.604;2.096;2023-06-10T06:11:42;7.88;;;6.30;;
10511;SDS011;5304;48.604;2.096;2023-06-10T06:14:30;9.50;;;6.18;;
10511;SDS011;5304;48.604;2.096;2023-06-10T06:17:16;8.07;;;6.57;;
10511;SDS011;5304;48.604;2.096;2023-06-10T06:20:00;8.70;;;6.20;;
10511;SDS011;5304;48.604;2.096;2023-06-10T06:22:45;7.15;;;5.93;;
10511;SDS011;5304;48.604;2.096;2023-06-10T06:25:29;7.25;;;6.25;;
10511;SDS011;5304;48.604;2.096;2023-06-10T06:28:14;8.25;;;6.07;;
10511;SDS011;5304;48.604;2.096;2023-06-10T06:30:58;8.73;;;6.50;;
10511;SDS011;5304;48.604;2.096;2023-06-10T06:33:43;7.55;;;5.57;;
10511;SDS011;5304;48.604;2.096;2023-06-10T06:36:27;8.65;;;6.15;;
10511;SDS011;5304;48.604;2.096;2023-06-10T06:39:12;6.75;;;6.03;;
10511;SDS011;5304;48.604;2.096;2023-06-10T06:41:57;8.75;;;5.97;;
10511;SDS011;5304;48.604;2.096;2023-06-10T06:44:42;7.75;;;5.95;;
10511;SDS011;5304;48.604;2.096;2023-06-10T06:47:26;7.55;;;5.80;;
10511;SDS011;5304;48.604;2.096;2023-06-10T06:50:11;9.10;;;6.07;;
10511;SDS011;5304;48.604;2.096;2023-06-10T06:52:55;7.40;;;5.55;;
10511;SDS011;5304;48.604;2.096;2023-06-10T06:55:39;7.07;;;5.65;;
10511;SDS011;5304;48.604;2.096;2023-06-10T06:58:24;6.82;;;6.13;;
10511;SDS011;5304;48.604;2.096;2023-06-10T07:01:08;7.93;;;5.72;;
10511;SDS011;5304;48.604;2.096;2023-06-10T07:03:52;6.45;;;5.80;;
10511;SDS011;5304;48.604;2.096;2023-06-10T07:06:37;8.05;;;7.13;;
10511;SDS011;5304;48.604;2.096;2023-06-10T07:09:21;7.90;;;6.00;;
10511;SDS011;5304;48.604;2.096;2023-06-10T07:12:06;6.63;;;5.93;;
10511;SDS011;5304;48.604;2.096;2023-06-10T07:14:51;6.22;;;5.18;;
10511;SDS011;5304;48.604;2.096;2023-06-10T07:17:35;9.98;;;5.95;;
10511;SDS011;5304;48.604;2.096;2023-06-10T07:20:20;6.72;;;5.72;;
10511;SDS011;5304;48.604;2.096;2023-06-10T07:23:04;6.80;;;5.70;;
10511;SDS011;5304;48.604;2.096;2023-06-10T07:25:49;7.10;;;5.85;;
10511;SDS011;5304;48.604;2.096;2023-06-10T07:28:33;7.75;;;5.95;;
10511;SDS011;5304;48.604;2.096;2023-06-10T07:31:18;6.40;;;5.10;;
10511;SDS011;5304;48.604;2.096;2023-06-10T07:34:02;6.45;;;4.93;;
10511;SDS011;5304;48.604;2.096;2023-06-10T07:36:47;7.45;;;5.30;;
10511;SDS011;5304;48.604;2.096;2023-06-10T07:39:31;8.50;;;5.00;;
10511;SDS011;5304;48.604;2.096;2023-06-10T07:42:16;5.15;;;4.65;;
10511;SDS011;5304;48.604;2.096;2023-06-10T07:45:00;7.00;;;4.90;;
10511;SDS011;5304;48.604;2.096;2023-06-10T07:47:45;7.18;;;5.40;;
10511;SDS011;5304;48.604;2.096;2023-06-10T07:50:30;5.28;;;4.88;;
10511;SDS011;5304;48.604;2.096;2023-06-10T07:53:14;6.30;;;4.88;;
10511;SDS011;5304;48.604;2.096;2023-06-10T07:55:59;6.10;;;5.15;;
10511;SDS011;5304;48.604;2.096;2023-06-10T07:58:43;5.18;;;4.68;;
10511;SDS011;5304;48.604;2.096;2023-06-10T08:01:28;5.47;;;4.97;;
10511;SDS011;5304;48.604;2.096;2023-06-10T08:04:14;5.68;;;4.80;;
10511;SDS011;5304;48.604;2.096;2023-06-10T08:06:58;5.03;;;4.63;;
10511;SDS011;5304;48.604;2.096;2023-06-10T08:09:42;4.40;;;4.10;;
10511;SDS011;5304;48.604;2.096;2023-06-10T08:12:27;4.82;;;4.38;;
10511;SDS011;5304;48.604;2.096;2023-06-10T08:15:11;6.32;;;5.50;;
10511;SDS011;5304;48.604;2.096;2023-06-10T08:17:56;5.22;;;4.72;;
10511;SDS011;5304;48.604;2.096;2023-06-10T08:20:40;6.38;;;4.57;;
10511;SDS011;5304;48.604;2.096;2023-06-10T08:23:25;6.20;;;5.00;;
10511;SDS011;5304;48.604;2.096;2023-06-10T08:26:09;5.20;;;4.68;;
10511;SDS011;5304;48.604;2.096;2023-06-10T08:28:53;6.20;;;4.70;;
10511;SDS011;5304;48.604;2.096;2023-06-10T08:31:43;5.47;;;4.65;;
10511;SDS011;5304;48.604;2.096;2023-06-10T08:34:27;6.47;;;4.07;;
10511;SDS011;5304;48.604;2.096;2023-06-10T08:37:12;4.93;;;4.15;;
10511;SDS011;5304;48.604;2.096;2023-06-10T08:39:56;5.35;;;4.85;;
10511;SDS011;5304;48.604;2.096;2023-06-10T08:42:43;5.90;;;4.60;;
10511;SDS011;5304;48.604;2.096;2023-06-10T08:45:37;4.55;;;4.15;;
10511;SDS011;5304;48.604;2.096;2023-06-10T08:48:21;6.57;;;4.72;;
10511;SDS011;5304;48.604;2.096;2023-06-10T08:51:06;5.88;;;4.97;;
10511;SDS011;5304;48.604;2.096;2023-06-10T08:53:58;6.22;;;4.43;;
10511;SDS011;5304;48.604;2.096;2023-06-10T08:56:48;6.28;;;5.10;;
10511;SDS011;5304;48.604;2.096;2023-06-10T08:59:37;5.32;;;4.28;;
10511;SDS011;5304;48.604;2.096;2023-06-10T09:02:22;4.90;;;4.10;;
10511;SDS011;5304;48.604;2.096;2023-06-10T09:05:09;5.32;;;4.82;;
10511;SDS011;5304;48.604;2.096;2023-06-10T09:07:54;6.57;;;4.57;;
10511;SDS011;5304;48.604;2.096;2023-06-10T09:10:41;4.68;;;4.28;;
10511;SDS011;5304;48.604;2.096;2023-06-10T09:13:25;4.57;;;4.18;;
10511;SDS011;5304;48.604;2.096;2023-06-10T09:16:10;4.95;;;4.22;;
10511;SDS011;5304;48.604;2.096;2023-06-10T09:18:56;4.53;;;3.90;;
10511;SDS011;5304;48.604;2.096;2023-06-10T09:21:42;4.72;;;4.13;;
10511;SDS011;5304;48.604;2.096;2023-06-10T09:24:27;5.97;;;4.13;;
10511;SDS011;5304;48.604;2.096;2023-06-10T09:27:12;4.57;;;3.80;;
10511;SDS011;5304;48.604;2.096;2023-06-10T09:29:57;4.53;;;3.83;;
10511;SDS011;5304;48.604;2.096;2023-06-10T09:32:41;7.50;;;4.75;;
10511;SDS011;5304;48.604;2.096;2023-06-10T09:35:27;4.45;;;4.05;;
10511;SDS011;5304;48.604;2.096;2023-06-10T09:38:13;5.35;;;4.20;;
10511;SDS011;5304;48.604;2.096;2023-06-10T09:41:03;5.50;;;3.97;;
10511;SDS011;5304;48.604;2.096;2023-06-10T09:43:47;3.92;;;3.60;;
10511;SDS011;5304;48.604;2.096;2023-06-10T09:46:33;5.07;;;3.75;;
10511;SDS011;5304;48.604;2.096;2023-06-10T09:49:17;4.75;;;3.78;;
10511;SDS011;5304;48.604;2.096;2023-06-10T09:52:02;4.07;;;3.72;;
10511;SDS011;5304;48.604;2.096;2023-06-10T09:54:50;4.90;;;3.30;;
10511;SDS011;5304;48.604;2.096;2023-06-10T09:57:36;3.50;;;3.10;;
10511;SDS011;5304;48.604;2.096;2023-06-10T10:00:21;3.80;;;3.40;;
10511;SDS011;5304;48.604;2.096;2023-06-10T10:03:06;5.20;;;3.33;;
10511;SDS011;5304;48.604;2.096;2023-06-10T10:05:57;5.63;;;3.42;;
10511;SDS011;5304;48.604;2.096;2023-06-10T10:08:43;4.63;;;3.20;;
10511;SDS011;5304;48.604;2.096;2023-06-10T10:11:29;3.58;;;3.28;;
10511;SDS011;5304;48.604;2.096;2023-06-10T10:14:15;3.97;;;3.20;;
10511;SDS011;5304;48.604;2.096;2023-06-10T10:17:00;3.88;;;3.40;;
10511;SDS011;5304;48.604;2.096;2023-06-10T10:19:46;5.20;;;3.60;;
10511;SDS011;5304;48.604;2.096;2023-06-10T10:22:37;5.30;;;3.65;;
10511;SDS011;5304;48.604;2.096;2023-06-10T10:25:24;3.58;;;3.28;;
10511;SDS011;5304;48.604;2.096;2023-06-10T10:28:12;3.90;;;3.45;;
10511;SDS011;5304;48.604;2.096;2023-06-10T10:31:01;4.80;;;4.38;;
10511;SDS011;5304;48.604;2.096;2023-06-10T10:33:54;5.57;;;3.85;;
10511;SDS011;5304;48.604;2.096;2023-06-10T10:36:42;4.00;;;3.70;;
10511;SDS011;5304;48.604;2.096;2023-06-10T10:39:28;4.60;;;3.38;;
10511;SDS011;5304;48.604;2.096;2023-06-10T10:42:13;4.43;;;4.03;;
10511;SDS011;5304;48.604;2.096;2023-06-10T10:44:59;4.00;;;3.70;;
10511;SDS011;5304;48.604;2.096;2023-06-10T10:47:44;4.30;;;3.80;;
10511;SDS011;5304;48.604;2.096;2023-06-10T10:50:30;5.38;;;3.30;;
10511;SDS011;5304;48.604;2.096;2023-06-10T10:53:14;5.57;;;3.38;;
10511;SDS011;5304;48.604;2.096;2023-06-10T10:59:04;4.38;;;3.38;;
10511;SDS011;5304;48.604;2.096;2023-06-10T11:01:49;4.70;;;3.40;;
10511;SDS011;5304;48.604;2.096;2023-06-10T11:04:33;3.60;;;3.15;;
10511;SDS011;5304;48.604;2.096;2023-06-10T11:07:20;2.85;;;2.63;;
10511;SDS011;5304;48.604;2.096;2023-06-10T11:10:06;3.58;;;3.08;;
10511;SDS011;5304;48.604;2.096;2023-06-10T11:12:53;3.80;;;2.92;;
10511;SDS011;5304;48.604;2.096;2023-06-10T11:15:39;3.08;;;2.78;;
10511;SDS011;5304;48.604;2.096;2023-06-10T11:18:30;2.35;;;2.25;;
10511;SDS011;5304;48.604;2.096;2023-06-10T11:21:23;3.00;;;2.70;;
10511;SDS011;5304;48.604;2.096;2023-06-10T11:24:12;3.00;;;2.80;;
10511;SDS011;5304;48.604;2.096;2023-06-10T11:32:50;4.35;;;2.67;;
10511;SDS011;5304;48.604;2.096;2023-06-10T11:35:35;2.60;;;2.40;;
10511;SDS011;5304;48.604;2.096;2023-06-10T11:38:19;2.90;;;2.70;;
10511;SDS011;5304;48.604;2.096;2023-06-10T11:41:04;2.53;;;2.30;;
10511;SDS011;5304;48.604;2.096;2023-06-10T11:43:49;2.30;;;2.10;;
10511;SDS011;5304;48.604;2.096;2023-06-10T11:46:34;2.70;;;2.50;;
10511;SDS011;5304;48.604;2.096;2023-06-10T11:49:20;2.55;;;2.35;;
10511;SDS011;5304;48.604;2.096;2023-06-10T11:52:04;2.50;;;2.35;;
10511;SDS011;5304;48.604;2.096;2023-06-10T11:54:55;2.92;;;2.53;;
10511;SDS011;5304;48.604;2.096;2023-06-10T11:57:40;2.17;;;2.05;;
10511;SDS011;5304;48.604;2.096;2023-06-10T12:00:24;2.60;;;2.40;;
10511;SDS011;5304;48.604;2.096;2023-06-10T12:03:09;3.70;;;2.30;;
10511;SDS011;5304;48.604;2.096;2023-06-10T12:06:00;4.28;;;2.42;;
10511;SDS011;5304;48.604;2.096;2023-06-10T12:08:48;4.75;;;2.53;;
10511;SDS011;5304;48.604;2.096;2023-06-10T12:11:32;3.15;;;2.38;;
10511;SDS011;5304;48.604;2.096;2023-06-10T12:17:42;3.20;;;2.50;;
10511;SDS011;5304;48.604;2.096;2023-06-10T12:20:27;2.47;;;2.25;;
10511;SDS011;5304;48.604;2.096;2023-06-10T12:23:14;3.10;;;2.80;;
10511;SDS011;5304;48.604;2.096;2023-06-10T12:25:59;3.58;;;3.28;;
10511;SDS011;5304;48.604;2.096;2023-06-10T12:28:50;3.17;;;2.80;;
10511;SDS011;5304;48.604;2.096;2023-06-10T12:31:51;3.70;;;2.80;;
10511;SDS011;5304;48.604;2.096;2023-06-10T12:34:39;2.83;;;2.55;;
10511;SDS011;5304;48.604;2.096;2023-06-10T12:37:24;3.72;;;2.85;;
10511;SDS011;5304;48.604;2.096;2023-06-10T12:40:09;2.97;;;2.60;;
10511;SDS011;5304;48.604;2.096;2023-06-10T12:42:53;2.80;;;2.60;;
10511;SDS011;5304;48.604;2.096;2023-06-10T12:45:39;2.83;;;2.63;;
10511;SDS011;5304;48.604;2.096;2023-06-10T12:48:28;3.10;;;2.70;;
10511;SDS011;5304;48.604;2.096;2023-06-10T12:51:12;3.80;;;3.10;;
10511;SDS011;5304;48.604;2.096;2023-06-10T12:53:57;4.95;;;3.15;;
10511;SDS011;5304;48.604;2.096;2023-06-10T12:56:41;3.63;;;2.80;;
10511;SDS011;5304;48.604;2.096;2023-06-10T12:59:26;3.80;;;2.95;;
10511;SDS011;5304;48.604;2.096;2023-06-10T13:02:11;3.80;;;2.60;;
10511;SDS011;5304;48.604;2.096;2023-06-10T13:04:56;3.15;;;2.85;;
10511;SDS011;5304;48.604;2.096;2023-06-10T13:07:41;7.10;;;3.13;;
10511;SDS011;5304;48.604;2.096;2023-06-10T13:10:25;3.72;;;3.38;;
10511;SDS011;5304;48.604;2.096;2023-06-10T13:13:11;4.57;;;2.75;;
10511;SDS011;5304;48.604;2.096;2023-06-10T13:15:55;3.33;;;3.03;;
10511;SDS011;5304;48.604;2.096;2023-06-10T13:18:40;3.60;;;3.30;;
10511;SDS011;5304;48.604;2.096;2023-06-10T13:21:25;3.90;;;3.40;;
10511;SDS011;5304;48.604;2.096;2023-06-10T13:24:09;3.67;;;3.30;;
10511;SDS011;5304;48.604;2.096;2023-06-10T13:26:54;3.50;;;3.15;;
10511;SDS011;5304;48.604;2.096;2023-06-10T13:29:40;3.00;;;2.80;;
10511;SDS011;5304;48.604;2.096;2023-06-10T13:32:24;3.72;;;3.30;;
10511;SDS011;5304;48.604;2.096;2023-06-10T13:35:09;3.78;;;3.45;;
10511;SDS011;5304;48.604;2.096;2023-06-10T13:37:54;4.95;;;3.35;;
10511;SDS011;5304;48.604;2.096;2023-06-10T13:40:38;3.47;;;3.17;;
10511;SDS011;5304;48.604;2.096;2023-06-10T13:43:23;3.67;;;3.15;;
10511;SDS011;5304;48.604;2.096;2023-06-10T13:46:07;3.00;;;2.78;;
10511;SDS011;5304;48.604;2.096;2023-06-10T13:48:52;3.45;;;3.15;;
10511;SDS011;5304;48.604;2.096;2023-06-10T13:51:36;3.38;;;3.08;;
10511;SDS011;5304;48.604;2.096;2023-06-10T13:54:21;4.13;;;3.42;;
10511;SDS011;5304;48.604;2.096;2023-06-10T13:57:05;3.40;;;3.10;;
10511;SDS011;5304;48.604;2.096;2023-06-10T13:59:50;3.80;;;3.50;;
10511;SDS011;5304;48.604;2.096;2023-06-10T14:02:35;3.95;;;3.65;;
10511;SDS011;5304;48.604;2.096;2023-06-10T14:05:20;3.45;;;3.17;;
10511;SDS011;5304;48.604;2.096;2023-06-10T14:08:04;3.25;;;2.95;;
10511;SDS011;5304;48.604;2.096;2023-06-10T14:10:49;3.42;;;3.13;;
10511;SDS011;5304;48.604;2.096;2023-06-10T14:13:35;3.97;;;3.55;;
10511;SDS011;5304;48.604;2.096;2023-06-10T14:16:21;4.88;;;3.63;;
10511;SDS011;5304;48.604;2.096;2023-06-10T14:19:06;3.75;;;3.17;;
10511;SDS011;5304;48.604;2.096;2023-06-10T14:21:50;3.95;;;3.20;;
10511;SDS011;5304;48.604;2.096;2023-06-10T14:24:37;3.75;;;3.45;;
10511;SDS011;5304;48.604;2.096;2023-06-10T14:27:22;4.43;;;3.33;;
10511;SDS011;5304;48.604;2.096;2023-06-10T14:30:06;3.65;;;3.17;;
10511;SDS011;5304;48.604;2.096;2023-06-10T14:32:51;5.47;;;3.35;;
10511;SDS011;5304;48.604;2.096;2023-06-10T14:35:35;5.97;;;2.90;;
10511;SDS011;5304;48.604;2.096;2023-06-10T14:38:20;3.30;;;2.97;;
10511;SDS011;5304;48.604;2.096;2023-06-10T14:41:04;2.92;;;2.67;;
10511;SDS011;5304;48.604;2.096;2023-06-10T14:43:49;3.03;;;2.83;;
10511;SDS011;5304;48.604;2.096;2023-06-10T14:46:33;3.85;;;2.90;;
10511;SDS011;5304;48.604;2.096;2023-06-10T14:49:18;3.10;;;2.90;;
10511;SDS011;5304;48.604;2.096;2023-06-10T14:52:02;3.13;;;2.83;;
10511;SDS011;5304;48.604;2.096;2023-06-10T14:54:47;3.00;;;2.70;;
10511;SDS011;5304;48.604;2.096;2023-06-10T14:57:31;3.38;;;3.05;;
10511;SDS011;5304;48.604;2.096;2023-06-10T15:00:16;3.03;;;2.83;;
10511;SDS011;5304;48.604;2.096;2023-06-10T15:03:03;2.88;;;2.60;;
10511;SDS011;5304;48.604;2.096;2023-06-10T15:05:48;3.03;;;2.72;;
10511;SDS011;5304;48.604;2.096;2023-06-10T15:08:32;2.63;;;2.42;;
10511;SDS011;5304;48.604;2.096;2023-06-10T15:11:17;3.03;;;2.38;;
10511;SDS011;5304;48.604;2.096;2023-06-10T15:14:01;2.70;;;2.50;;
10511;SDS011;5304;48.604;2.096;2023-06-10T15:16:45;2.60;;;2.40;;
10511;SDS011;5304;48.604;2.096;2023-06-10T15:19:30;3.10;;;2.80;;
10511;SDS011;5304;48.604;2.096;2023-06-10T15:22:14;2.63;;;2.42;;
10511;SDS011;5304;48.604;2.096;2023-06-10T15:24:58;2.97;;;2.50;;
10511;SDS011;5304;48.604;2.096;2023-06-10T15:27:43;2.92;;;2.17;;
10511;SDS011;5304;48.604;2.096;2023-06-10T15:30:27;2.78;;;2.50;;
10511;SDS011;5304;48.604;2.096;2023-06-10T15:33:11;2.47;;;2.28;;
10511;SDS011;5304;48.604;2.096;2023-06-10T15:35:55;2.20;;;2.10;;
10511;SDS011;5304;48.604;2.096;2023-06-10T15:38:40;2.60;;;2.40;;
10511;SDS011;5304;48.604;2.096;2023-06-10T15:41:24;2.85;;;2.63;;
10511;SDS011;5304;48.604;2.096;2023-06-10T15:44:09;3.38;;;2.85;;
10511;SDS011;5304;48.604;2.096;2023-06-10T15:46:54;2.33;;;2.13;;
10511;SDS011;5304;48.604;2.096;2023-06-10T15:49:39;3.08;;;2.72;;
10511;SDS011;5304;48.604;2.096;2023-06-10T15:52:23;3.17;;;2.97;;
10511;SDS011;5304;48.604;2.096;2023-06-10T15:55:08;3.22;;;2.92;;
10511;SDS011;5304;48.604;2.096;2023-06-10T15:57:53;3.22;;;2.83;;
10511;SDS011;5304;48.604;2.096;2023-06-10T16:00:37;3.05;;;2.85;;
10511;SDS011;5304;48.604;2.096;2023-06-10T16:03:23;3.75;;;3.00;;
10511;SDS011;5304;48.604;2.096;2023-06-10T16:06:08;2.50;;;2.30;;
10511;SDS011;5304;48.604;2.096;2023-06-10T16:08:52;2.88;;;2.67;;
10511;SDS011;5304;48.604;2.096;2023-06-10T16:11:37;2.70;;;2.30;;
10511;SDS011;5304;48.604;2.096;2023-06-10T16:14:21;2.55;;;2.35;;
10511;SDS011;5304;48.604;2.096;2023-06-10T16:17:06;2.30;;;2.10;;
10511;SDS011;5304;48.604;2.096;2023-06-10T16:19:50;2.60;;;2.40;;
10511;SDS011;5304;48.604;2.096;2023-06-10T16:22:35;2.72;;;2.53;;
10511;SDS011;5304;48.604;2.096;2023-06-10T16:25:20;3.05;;;2.80;;
10511;SDS011;5304;48.604;2.096;2023-06-10T16:28:04;4.07;;;2.80;;
10511;SDS011;5304;48.604;2.096;2023-06-10T16:30:49;3.65;;;3.35;;
10511;SDS011;5304;48.604;2.096;2023-06-10T16:33:34;4.57;;;2.78;;
10511;SDS011;5304;48.604;2.096;2023-06-10T16:36:19;3.53;;;3.13;;
10511;SDS011;5304;48.604;2.096;2023-06-10T16:39:04;5.70;;;3.72;;
10511;SDS011;5304;48.604;2.096;2023-06-10T16:41:48;5.70;;;3.35;;
10511;SDS011;5304;48.604;2.096;2023-06-10T16:44:32;6.88;;;3.50;;
10511;SDS011;5304;48.604;2.096;2023-06-10T16:47:17;4.72;;;3.30;;
10511;SDS011;5304;48.604;2.096;2023-06-10T16:50:01;3.40;;;3.10;;
10511;SDS011;5304;48.604;2.096;2023-06-10T16:52:47;2.97;;;2.75;;
10511;SDS011;5304;48.604;2.096;2023-06-10T16:55:31;2.70;;;2.50;;
10511;SDS011;5304;48.604;2.096;2023-06-10T16:58:16;4.45;;;3.00;;
10511;SDS011;5304;48.604;2.096;2023-06-10T17:01:04;2.92;;;2.50;;
10511;SDS011;5304;48.604;2.096;2023-06-10T17:03:51;3.17;;;2.50;;
10511;SDS011;5304;48.604;2.096;2023-06-10T17:06:36;2.90;;;2.53;;